Terminal Aerodrome Forecast
Issued by NWS Wilmington, OH

Current Version | Previous Version | Text Only | Print | Product List | Glossary Off
Versions: 1 2 3 4 5 6 7 8 9 10 11 12 13 14 15 16 17 18 19 20 21 22 23 24 25 26 27 28 29 30

000
FTUS41 KILN 300500
TAFCMH
TAF
KCMH 300540Z 3006/0106 22004KT 5SM BR BKN007
     FM301400 23007KT P6SM BKN015
     FM301600 24010KT P6SM VCSH BKN035
     FM301800 24012G20KT P6SM VCTS BKN040CB
      TEMPO 3018/3022 3SM TSRA BR OVC020CB
     FM010000 25006KT P6SM SCT050 SCT100=

USA.gov is the U.S. government's official web portal to all federal, state and local government web resources and services.